createdAt,value
2022-10-23T00:01:47.219Z,93887.50
2022-10-23T00:04:21.483Z,93890.34
2022-10-23T00:06:49.891Z,93894.84
2022-10-23T00:09:20.515Z,93888.56
2022-10-23T00:11:50.250Z,93899.59
2022-10-23T00:14:21.493Z,93909.09
2022-10-23T00:16:49.122Z,93906.28
2022-10-23T00:19:16.770Z,93898.03
2022-10-23T00:21:44.872Z,93897.81
2022-10-23T00:24:13.154Z,93894.50
2022-10-23T00:26:41.491Z,93898.81
2022-10-23T00:29:10.984Z,93900.72
2022-10-23T00:31:38.546Z,93895.50
2022-10-23T00:34:08.636Z,93903.75
2022-10-23T00:36:37.753Z,93912.56
2022-10-23T00:39:06.147Z,93913.13
2022-10-23T00:41:34.715Z,93892.72
2022-10-23T00:44:09.600Z,93864.00
2022-10-23T00:46:38.859Z,93875.94
2022-10-23T00:49:08.171Z,93871.28
2022-10-23T00:51:45.577Z,93877.25
2022-10-23T00:54:30.425Z,93869.91
2022-10-23T00:57:01.704Z,93895.84
2022-10-23T00:59:30.462Z,93893.28
2022-10-23T01:01:58.852Z,93890.56
2022-10-23T01:04:28.280Z,93895.16
2022-10-23T01:07:20.282Z,93886.56
2022-10-23T01:10:14.251Z,93877.31
2022-10-23T01:12:58.608Z,93873.72
2022-10-23T01:15:29.229Z,93871.44
2022-10-23T01:18:27.736Z,93886.47
2022-10-23T01:21:17.675Z,93886.09
2022-10-23T01:24:09.724Z,93886.84
2022-10-23T01:27:11.836Z,93880.81
2022-10-23T01:30:01.973Z,93881.78
2022-10-23T01:32:55.175Z,93881.78
2022-10-23T01:35:29.555Z,93885.53
2022-10-23T01:38:23.961Z,93884.84
2022-10-23T01:41:03.224Z,93897.72
2022-10-23T01:43:45.139Z,93893.47
2022-10-23T01:46:17.894Z,93892.44
2022-10-23T01:48:54.914Z,93906.44
2022-10-23T01:51:27.296Z,93908.91
2022-10-23T01:53:59.936Z,93911.31
2022-10-23T01:56:33.600Z,93916.94
2022-10-23T01:59:05.241Z,93913.47
2022-10-23T02:01:35.232Z,93910.97
2022-10-23T02:04:05.953Z,93911.63
2022-10-23T02:06:33.517Z,93906.41
2022-10-23T02:09:00.988Z,93909.00
2022-10-23T02:11:29.995Z,93905.44
2022-10-23T02:14:04.133Z,93910.22
2022-10-23T02:16:54.758Z,93905.16
2022-10-23T02:19:37.897Z,93923.66
2022-10-23T02:22:06.140Z,93926.66
2022-10-23T02:24:42.826Z,93927.25
2022-10-23T02:27:19.164Z,93926.06
2022-10-23T02:29:52.922Z,93929.25
2022-10-23T02:32:24.817Z,93927.66
2022-10-23T02:34:52.049Z,93930.19
2022-10-23T02:37:19.538Z,93927.41
2022-10-23T02:39:48.474Z,93933.81
2022-10-23T02:42:23.121Z,93925.34
2022-10-23T02:45:19.671Z,93932.16
2022-10-23T02:48:12.845Z,93942.88
2022-10-23T02:51:25.586Z,93949.31
2022-10-23T02:54:16.417Z,93959.66
2022-10-23T02:56:57.141Z,93958.16
2022-10-23T03:00:04.987Z,93964.75
2022-10-23T03:02:40.509Z,93954.47
2022-10-23T03:05:12.558Z,93958.75
2022-10-23T03:07:41.501Z,93964.97
2022-10-23T03:10:10.828Z,93961.16
2022-10-23T03:12:39.050Z,93966.34
2022-10-23T03:15:08.590Z,93957.97
2022-10-23T03:17:35.975Z,93960.19
2022-10-23T03:20:05.019Z,93953.59
2022-10-23T03:22:32.992Z,93954.75
2022-10-23T03:25:00.743Z,93957.81
2022-10-23T03:27:29.869Z,93972.59
2022-10-23T03:29:59.540Z,93975.59
2022-10-23T03:32:27.157Z,93971.59
2022-10-23T03:34:54.529Z,93980.00
2022-10-23T03:37:22.841Z,93973.59
2022-10-23T03:39:51.147Z,93975.59
2022-10-23T03:42:18.930Z,93976.59
2022-10-23T03:44:46.853Z,93985.03
2022-10-23T03:47:14.494Z,93987.81
2022-10-23T03:49:42.065Z,93989.63
2022-10-23T03:52:09.910Z,93990.66
2022-10-23T03:54:38.569Z,93986.63
2022-10-23T03:57:06.112Z,93981.44
2022-10-23T03:59:33.999Z,93986.87
2022-10-23T04:02:01.639Z,93989.09
2022-10-23T04:04:30.407Z,93990.50
2022-10-23T04:06:57.829Z,93999.91
2022-10-23T04:09:25.410Z,93988.28
2022-10-23T04:11:53.189Z,93989.91
2022-10-23T04:14:20.551Z,93998.47
2022-10-23T04:16:48.031Z,93995.87
2022-10-23T04:19:17.335Z,94002.09
2022-10-23T04:21:45.340Z,94007.50
2022-10-23T04:24:13.072Z,94003.09
2022-10-23T04:26:41.341Z,94003.50
2022-10-23T04:29:10.069Z,94000.91
2022-10-23T04:31:37.381Z,94012.31
2022-10-23T04:36:33.566Z,94007.09
2022-10-23T04:39:02.555Z,94010.09
2022-10-23T04:41:30.422Z,94005.91
2022-10-23T04:43:57.869Z,94003.28
2022-10-23T04:46:25.706Z,93998.25
2022-10-23T04:48:53.450Z,94010.28
2022-10-23T04:51:21.315Z,94012.09
2022-10-23T04:53:49.177Z,93999.47
2022-10-23T04:56:18.665Z,94003.88
2022-10-23T04:58:46.326Z,94013.88
2022-10-23T05:01:13.862Z,94022.06
2022-10-23T05:03:42.025Z,94021.88
2022-10-23T05:06:09.983Z,94015.50
2022-10-23T05:08:37.863Z,94020.91
2022-10-23T05:11:06.012Z,94015.09
2022-10-23T05:13:36.562Z,94015.28
2022-10-23T05:16:04.136Z,94016.34
2022-10-23T05:18:38.313Z,94019.72
2022-10-23T05:21:12.146Z,94021.12
2022-10-23T05:23:44.609Z,94024.31
2022-10-23T05:26:13.972Z,94023.13
2022-10-23T05:28:43.037Z,94013.72
2022-10-23T05:31:13.810Z,94020.34
2022-10-23T05:33:41.954Z,94016.13
2022-10-23T05:36:13.104Z,94020.94
2022-10-23T05:38:41.037Z,94024.16
2022-10-23T05:41:10.134Z,94020.97
2022-10-23T05:43:37.971Z,94019.94
2022-10-23T05:46:07.250Z,94024.34
2022-10-23T05:48:35.618Z,94033.37
2022-10-23T05:51:05.233Z,94030.31
2022-10-23T05:53:33.111Z,94034.97
2022-10-23T05:56:08.760Z,94038.56
2022-10-23T05:58:38.815Z,94044.75
2022-10-23T06:01:12.531Z,94048.94
2022-10-23T06:03:41.298Z,94057.56
2022-10-23T06:06:09.840Z,94054.16
2022-10-23T06:08:38.602Z,94049.88
2022-10-23T06:11:11.443Z,94051.44
2022-10-23T06:13:39.739Z,94052.44
2022-10-23T06:16:15.509Z,94046.94
2022-10-23T06:18:43.614Z,94049.59
2022-10-23T06:21:11.492Z,94057.69
2022-10-23T06:23:40.849Z,94051.41
2022-10-23T06:26:10.694Z,94058.53
2022-10-23T06:28:39.492Z,94051.31
2022-10-23T06:31:13.230Z,94040.37
2022-10-23T06:33:41.831Z,94038.97
2022-10-23T06:36:10.861Z,94030.34
2022-10-23T06:38:40.816Z,94039.09
2022-10-23T06:41:14.453Z,94046.56
2022-10-23T06:43:42.324Z,94050.31
2022-10-23T06:46:14.772Z,94067.12
2022-10-23T06:48:44.314Z,94058.84
2022-10-23T06:51:14.299Z,94052.06
2022-10-23T06:53:42.483Z,94060.91
2022-10-23T06:56:11.238Z,94058.38
2022-10-23T06:58:40.040Z,94069.13
2022-10-23T07:01:09.450Z,94068.06
2022-10-23T07:03:37.169Z,94059.47
2022-10-23T07:06:07.846Z,94061.50
2022-10-23T07:08:36.769Z,94053.53
2022-10-23T07:11:07.401Z,94045.34
2022-10-23T07:13:36.692Z,94051.91
2022-10-23T07:16:14.185Z,94059.97
2022-10-23T07:18:42.322Z,94058.75
2022-10-23T07:21:11.185Z,94062.81
2022-10-23T07:23:39.037Z,94072.94
2022-10-23T07:26:16.277Z,94065.91
2022-10-23T07:28:46.494Z,94048.31
2022-10-23T07:31:17.854Z,94047.47
2022-10-23T07:33:47.800Z,94045.38
2022-10-23T07:36:16.189Z,94056.53
2022-10-23T07:38:44.210Z,94051.09
2022-10-23T07:41:12.558Z,94060.38
2022-10-23T07:43:40.661Z,94060.91
2022-10-23T07:46:11.512Z,94065.47
2022-10-23T07:48:40.251Z,94070.00
2022-10-23T07:51:12.976Z,94066.31
2022-10-23T07:53:41.704Z,94072.41
2022-10-23T07:56:17.276Z,94082.19
2022-10-23T07:58:47.946Z,94092.81
2022-10-23T08:01:32.187Z,94099.22
2022-10-23T08:04:01.094Z,94093.16
2022-10-23T08:06:29.807Z,94088.66
2022-10-23T08:08:59.899Z,94079.09
2022-10-23T08:11:35.558Z,94082.81
2022-10-23T08:14:05.243Z,94080.69
2022-10-23T08:16:35.232Z,94070.06
2022-10-23T08:19:07.038Z,94081.19
2022-10-23T08:21:35.294Z,94071.66
2022-10-23T08:24:03.103Z,94080.13
2022-10-23T08:26:31.232Z,94083.31
2022-10-23T08:29:00.200Z,94082.25
2022-10-23T08:31:28.173Z,94078.78
2022-10-23T08:33:57.068Z,94088.88
2022-10-23T08:36:29.603Z,94088.88
2022-10-23T08:38:58.409Z,94083.00
2022-10-23T08:41:31.414Z,94081.97
2022-10-23T08:44:24.533Z,94089.38
2022-10-23T08:47:05.610Z,94090.91
2022-10-23T08:49:48.401Z,94100.13
2022-10-23T08:52:20.036Z,94089.91
2022-10-23T08:54:57.755Z,94096.41
2022-10-23T08:57:35.551Z,94087.47
2022-10-23T09:00:08.507Z,94080.41
2022-10-23T09:02:44.295Z,94079.75
2022-10-23T09:05:37.008Z,94085.59
2022-10-23T09:08:23.275Z,94092.78
2022-10-23T09:11:27.206Z,94093.13
2022-10-23T09:14:33.152Z,94086.13
2022-10-23T09:17:31.585Z,94084.53
2022-10-23T09:20:22.100Z,94085.94
2022-10-23T09:22:54.456Z,94091.94
2022-10-23T09:25:29.325Z,94082.22
2022-10-23T09:28:05.286Z,94085.87
2022-10-23T09:30:42.662Z,94097.41
2022-10-23T09:33:28.722Z,94086.25
2022-10-23T09:35:58.430Z,94075.12
2022-10-23T09:38:37.961Z,94080.25
2022-10-23T09:41:40.142Z,94077.78
2022-10-23T09:44:07.547Z,94082.16
2022-10-23T09:46:56.469Z,94085.03
2022-10-23T09:49:29.886Z,94096.72
2022-10-23T09:52:24.685Z,94080.13
2022-10-23T09:54:56.319Z,94084.81
2022-10-23T09:57:45.126Z,94073.81
2022-10-23T10:00:14.190Z,94078.66
2022-10-23T10:02:44.316Z,94072.78
2022-10-23T10:05:37.154Z,94071.53
2022-10-23T10:08:20.675Z,94063.19
2022-10-23T10:10:52.466Z,94066.91
2022-10-23T10:13:49.699Z,94067.31
2022-10-23T10:19:31.904Z,94060.44
2022-10-23T10:22:23.821Z,94049.53
2022-10-23T10:25:03.194Z,94055.78
2022-10-23T10:28:04.875Z,94056.50
2022-10-23T10:30:57.331Z,94041.53
2022-10-23T10:33:37.831Z,94044.88
2022-10-23T10:36:30.856Z,94040.59
2022-10-23T10:39:04.076Z,94031.00
2022-10-23T10:41:45.563Z,94042.19
2022-10-23T10:44:28.369Z,94037.09
2022-10-23T10:47:38.035Z,94029.22
2022-10-23T10:50:05.590Z,94033.28
2022-10-23T10:52:48.292Z,94037.22
2022-10-23T10:55:49.564Z,94035.53
2022-10-23T10:58:23.908Z,94027.03
2022-10-23T11:01:00.566Z,94024.38
2022-10-23T11:03:40.284Z,94025.87
2022-10-23T11:06:15.380Z,94025.63
2022-10-23T11:08:56.387Z,94020.28
2022-10-23T11:11:28.723Z,94012.22
2022-10-23T11:13:57.759Z,94013.69
2022-10-23T11:16:30.209Z,94007.06
2022-10-23T11:19:21.625Z,94010.00
2022-10-23T11:22:07.412Z,94003.13
2022-10-23T11:25:17.456Z,94003.00
2022-10-23T11:28:01.695Z,93995.97
2022-10-23T11:30:38.849Z,93996.06
2022-10-23T11:33:28.120Z,93992.47
2022-10-23T11:36:07.206Z,93995.84
2022-10-23T11:38:37.659Z,93989.91
2022-10-23T11:41:19.939Z,93981.53
2022-10-23T11:43:57.223Z,93984.81
2022-10-23T11:46:25.710Z,93980.31
2022-10-23T11:48:55.059Z,93978.84
2022-10-23T11:51:33.435Z,93973.63
2022-10-23T11:54:10.344Z,93973.88
2022-10-23T11:56:39.441Z,93969.44
2022-10-23T11:59:39.367Z,93971.03
2022-10-23T12:02:28.768Z,93964.50
2022-10-23T12:04:56.854Z,93963.22
2022-10-23T12:07:29.044Z,93972.50
2022-10-23T12:10:04.909Z,93964.69
2022-10-23T12:12:32.564Z,93963.72
2022-10-23T12:15:27.254Z,93962.31
2022-10-23T12:18:07.837Z,93956.37
2022-10-23T12:20:42.973Z,93952.78
2022-10-23T12:23:24.143Z,93955.47
2022-10-23T12:25:58.091Z,93959.66
2022-10-23T12:28:42.387Z,93960.22
2022-10-23T12:31:47.969Z,93960.47
2022-10-23T12:34:48.087Z,93958.78
2022-10-23T12:37:44.807Z,93950.50
2022-10-23T12:40:12.726Z,93950.66
2022-10-23T12:42:41.652Z,93961.78
2022-10-23T12:45:22.761Z,93960.94
2022-10-23T12:47:52.434Z,93957.37
2022-10-23T12:50:23.362Z,93958.41
2022-10-23T12:52:52.959Z,93962.16
2022-10-23T12:55:21.235Z,93960.31
2022-10-23T12:57:48.886Z,93959.38
2022-10-23T13:00:20.465Z,93961.97
2022-10-23T13:02:58.110Z,93968.38
2022-10-23T13:05:27.296Z,93960.59
2022-10-23T13:07:55.534Z,93960.62
2022-10-23T13:10:25.298Z,93964.78
2022-10-23T13:13:00.376Z,93965.63
2022-10-23T13:15:38.358Z,93966.84
2022-10-23T13:18:08.273Z,93977.41
2022-10-23T13:20:43.547Z,93976.12
2022-10-23T13:23:19.141Z,93973.81
2022-10-23T13:26:21.667Z,93969.56
2022-10-23T13:28:50.432Z,93978.00
2022-10-23T13:31:17.928Z,93981.34
2022-10-23T13:33:47.293Z,93969.63
2022-10-23T13:36:15.054Z,93977.31
2022-10-23T13:38:58.913Z,93968.91
2022-10-23T13:41:31.875Z,93972.63
2022-10-23T13:43:59.332Z,93964.16
2022-10-23T13:46:27.083Z,93971.06
2022-10-23T13:48:54.559Z,93968.62
2022-10-23T13:51:25.551Z,93958.19
2022-10-23T13:53:54.380Z,93964.00
2022-10-23T13:56:24.428Z,93968.50
2022-10-23T13:58:52.078Z,93954.19
2022-10-23T14:01:28.019Z,93963.94
2022-10-23T14:03:57.880Z,93964.00
2022-10-23T14:06:25.834Z,93965.16
2022-10-23T14:08:53.267Z,93966.34
2022-10-23T14:11:21.719Z,93971.87
2022-10-23T14:13:49.799Z,93971.94
2022-10-23T14:16:19.751Z,93975.69
2022-10-23T14:18:48.302Z,93970.53
2022-10-23T14:21:22.151Z,93965.37
2022-10-23T14:23:51.847Z,93967.34
2022-10-23T14:26:25.890Z,93964.94
2022-10-23T14:29:00.701Z,93967.28
2022-10-23T14:31:32.201Z,93964.47
2022-10-23T14:34:01.913Z,93972.97
2022-10-23T14:36:38.636Z,93967.34
2022-10-23T14:39:17.795Z,93964.75
2022-10-23T14:41:45.226Z,93962.13
2022-10-23T14:44:12.733Z,93971.69
2022-10-23T14:46:40.739Z,93977.03
2022-10-23T14:51:35.601Z,93965.44
2022-10-23T14:54:06.409Z,93970.56
2022-10-23T14:56:36.839Z,93972.44
2022-10-23T14:59:04.887Z,93965.66
2022-10-23T15:01:35.450Z,93965.59
2022-10-23T15:04:03.184Z,93970.41
2022-10-23T15:06:31.230Z,93980.94
2022-10-23T15:08:58.667Z,93967.44
2022-10-23T15:11:27.312Z,93965.00
2022-10-23T15:13:55.943Z,93968.75
2022-10-23T15:16:24.710Z,93964.13
2022-10-23T15:18:52.525Z,93965.19
2022-10-23T15:21:20.544Z,93967.28
2022-10-23T15:23:48.653Z,93975.66
2022-10-23T15:26:23.533Z,93971.41
2022-10-23T15:28:56.604Z,93971.13
2022-10-23T15:31:58.069Z,93972.59
2022-10-23T15:34:29.103Z,93972.19
2022-10-23T15:36:57.856Z,93968.38
2022-10-23T15:39:33.984Z,93979.97
2022-10-23T15:42:04.271Z,93988.78
2022-10-23T15:44:33.873Z,93985.59
2022-10-23T15:47:01.609Z,93996.25
2022-10-23T15:49:32.886Z,93999.44
2022-10-23T15:52:00.812Z,93995.50
2022-10-23T15:54:30.667Z,93998.53
2022-10-23T15:57:01.219Z,94005.66
2022-10-23T15:59:30.497Z,94008.31
2022-10-23T16:01:58.193Z,94009.13
2022-10-23T16:04:26.197Z,94012.59
2022-10-23T16:06:53.628Z,94015.50
2022-10-23T16:09:21.571Z,94018.13
2022-10-23T16:11:49.380Z,94016.03
2022-10-23T16:14:17.793Z,94022.66
2022-10-23T16:16:45.384Z,94017.63
2022-10-23T16:19:13.297Z,94020.78
2022-10-23T16:21:41.711Z,94023.38
2022-10-23T16:24:09.674Z,94021.75
2022-10-23T16:26:38.127Z,94023.63
2022-10-23T16:29:08.374Z,94028.38
2022-10-23T16:31:36.107Z,94028.06
2022-10-23T16:34:05.590Z,94044.22
2022-10-23T16:36:34.722Z,94039.44
2022-10-23T16:39:04.417Z,94045.25
2022-10-23T16:41:40.617Z,94040.13
2022-10-23T16:44:15.970Z,94052.75
2022-10-23T16:46:45.613Z,94053.19
2022-10-23T16:49:14.120Z,94048.91
2022-10-23T16:51:41.569Z,94051.78
2022-10-23T16:54:09.802Z,94051.25
2022-10-23T16:56:37.248Z,94055.75
2022-10-23T16:59:04.664Z,94054.63
2022-10-23T17:01:33.657Z,94050.19
2022-10-23T17:04:01.944Z,94049.56
2022-10-23T17:13:37.770Z,94061.69
2022-10-23T17:16:09.535Z,94061.69
2022-10-23T17:18:42.854Z,94078.19
2022-10-23T17:21:17.517Z,94077.28
2022-10-23T17:23:45.630Z,94076.97
2022-10-23T17:26:17.016Z,94075.78
2022-10-23T17:28:44.864Z,94074.00
2022-10-23T17:31:15.667Z,94076.22
2022-10-23T17:33:43.744Z,94079.59
2022-10-23T17:36:13.949Z,94078.75
2022-10-23T17:38:45.850Z,94088.47
2022-10-23T17:41:15.812Z,94079.56
2022-10-23T17:43:44.733Z,94081.13
2022-10-23T17:46:13.830Z,94085.50
2022-10-23T17:48:43.640Z,94081.03
2022-10-23T17:51:17.285Z,94087.41
2022-10-23T17:53:47.923Z,94092.09
2022-10-23T17:56:20.172Z,94086.22
2022-10-23T17:58:47.761Z,94087.25
2022-10-23T18:01:18.379Z,94088.66
2022-10-23T18:03:46.387Z,94090.16
2022-10-23T18:06:18.087Z,94094.16
2022-10-23T18:08:46.560Z,94094.75
2022-10-23T18:11:32.600Z,94088.19
2022-10-23T18:14:01.600Z,94092.81
2022-10-23T18:16:29.722Z,94089.09
2022-10-23T18:19:00.025Z,94088.19
2022-10-23T18:21:28.091Z,94084.91
2022-10-23T18:23:55.865Z,94095.09
2022-10-23T18:26:26.821Z,94086.69
2022-10-23T18:28:57.552Z,94090.19
2022-10-23T18:31:27.323Z,94088.41
2022-10-23T18:34:01.607Z,94092.16
2022-10-23T18:36:31.868Z,94095.03
2022-10-23T18:38:59.959Z,94090.94
2022-10-23T18:41:28.250Z,94101.44
2022-10-23T18:43:55.670Z,94101.06
2022-10-23T18:46:23.316Z,94110.16
2022-10-23T18:48:53.782Z,94109.31
2022-10-23T18:51:33.311Z,94108.72
2022-10-23T18:54:04.322Z,94111.38
2022-10-23T18:56:33.772Z,94118.22
2022-10-23T18:59:03.742Z,94112.72
2022-10-23T19:01:32.070Z,94121.03
2022-10-23T19:04:01.566Z,94114.28
2022-10-23T19:06:30.377Z,94128.34
2022-10-23T19:08:58.694Z,94121.47
2022-10-23T19:11:27.538Z,94127.88
2022-10-23T19:13:55.711Z,94125.50
2022-10-23T19:17:03.043Z,94129.25
2022-10-23T19:19:35.951Z,94128.12
2022-10-23T19:22:04.417Z,94125.34
2022-10-23T19:24:39.801Z,94131.41
2022-10-23T19:27:08.759Z,94132.31
2022-10-23T19:29:40.117Z,94126.66
2022-10-23T19:32:07.590Z,94130.16
2022-10-23T19:34:35.274Z,94136.53
2022-10-23T19:37:03.064Z,94132.81
2022-10-23T19:39:30.496Z,94131.19
2022-10-23T19:41:58.718Z,94132.66
2022-10-23T19:44:26.834Z,94128.44
2022-10-23T19:46:54.256Z,94126.78
2022-10-23T19:49:24.004Z,94127.00
2022-10-23T19:51:51.901Z,94133.81
2022-10-23T19:54:21.082Z,94134.06
2022-10-23T19:56:48.798Z,94143.84
2022-10-23T19:59:17.150Z,94143.62
2022-10-23T20:01:47.803Z,94144.19
2022-10-23T20:04:18.520Z,94146.63
2022-10-23T20:06:46.923Z,94150.81
2022-10-23T20:09:14.334Z,94153.06
2022-10-23T20:11:43.629Z,94152.25
2022-10-23T20:14:11.442Z,94153.50
2022-10-23T20:16:40.003Z,94155.69
2022-10-23T20:19:10.440Z,94152.50
2022-10-23T20:21:39.825Z,94149.53
2022-10-23T20:24:08.287Z,94152.72
2022-10-23T20:26:36.203Z,94150.97
2022-10-23T20:29:03.817Z,94146.91
2022-10-23T20:31:33.615Z,94146.97
2022-10-23T20:34:01.483Z,94150.59
2022-10-23T20:36:35.008Z,94147.44
2022-10-23T20:39:12.148Z,94140.22
2022-10-23T20:41:40.927Z,94140.28
2022-10-23T20:44:09.843Z,94139.47
2022-10-23T20:46:37.472Z,94134.09
2022-10-23T20:49:05.104Z,94136.72
2022-10-23T20:51:33.374Z,94137.97
2022-10-23T20:54:00.827Z,94137.66
2022-10-23T20:56:31.448Z,94137.22
2022-10-23T20:59:01.251Z,94140.09
2022-10-23T21:01:30.463Z,94140.88
2022-10-23T21:03:59.971Z,94137.19
2022-10-23T21:06:41.046Z,94141.75
2022-10-23T21:09:18.915Z,94150.84
2022-10-23T21:11:46.832Z,94144.88
2022-10-23T21:14:14.291Z,94142.47
2022-10-23T21:16:44.606Z,94145.19
2022-10-23T21:19:14.744Z,94149.91
2022-10-23T21:21:43.009Z,94146.44
2022-10-23T21:24:15.160Z,94147.91
2022-10-23T21:26:43.064Z,94144.44
2022-10-23T21:29:19.853Z,94150.03
2022-10-23T21:31:59.844Z,94144.56
2022-10-23T21:34:28.339Z,94144.44
2022-10-23T21:37:13.380Z,94140.91
2022-10-23T21:39:46.379Z,94140.75
2022-10-23T21:42:14.558Z,94136.66
2022-10-23T21:44:41.975Z,94139.59
2022-10-23T21:47:09.560Z,94133.03
2022-10-23T21:49:37.489Z,94133.06
2022-10-23T21:52:05.294Z,94134.63
2022-10-23T21:54:33.142Z,94137.19
2022-10-23T21:57:03.412Z,94142.13
2022-10-23T21:59:33.170Z,94149.75
2022-10-23T22:02:03.356Z,94141.34
2022-10-23T22:04:31.449Z,94147.97
2022-10-23T22:06:58.762Z,94149.00
2022-10-23T22:09:26.033Z,94141.16
2022-10-23T22:11:54.372Z,94143.41
2022-10-23T22:14:23.051Z,94149.53
2022-10-23T22:16:50.457Z,94151.19
2022-10-23T22:19:20.104Z,94148.37
2022-10-23T22:21:48.744Z,94149.50
2022-10-23T22:24:17.765Z,94156.53
2022-10-23T22:26:51.733Z,94151.00
2022-10-23T22:29:24.957Z,94156.69
2022-10-23T22:31:53.520Z,94152.56
2022-10-23T22:37:12.220Z,94149.19
2022-10-23T22:39:40.364Z,94152.56
2022-10-23T22:42:08.014Z,94148.84
2022-10-23T22:44:35.840Z,94155.75
2022-10-23T22:47:03.605Z,94156.06
2022-10-23T22:49:31.046Z,94152.97
2022-10-23T22:51:58.812Z,94152.16
2022-10-23T22:54:26.244Z,94155.97
2022-10-23T22:56:53.686Z,94150.72
2022-10-23T22:59:21.425Z,94152.31
2022-10-23T23:01:49.513Z,94152.03
2022-10-23T23:07:08.763Z,94150.34
2022-10-23T23:09:41.673Z,94152.38
2022-10-23T23:12:11.360Z,94148.75
2022-10-23T23:14:39.543Z,94151.97
2022-10-23T23:17:08.202Z,94156.13
2022-10-23T23:19:36.206Z,94154.16
2022-10-23T23:22:03.945Z,94145.13
2022-10-23T23:24:32.262Z,94152.69
2022-10-23T23:26:59.970Z,94154.28
2022-10-23T23:29:28.522Z,94149.47
2022-10-23T23:31:56.132Z,94157.13
2022-10-23T23:34:23.983Z,94148.69
2022-10-23T23:36:51.498Z,94149.78
2022-10-23T23:39:18.873Z,94151.56
2022-10-23T23:41:46.736Z,94149.56
2022-10-23T23:44:14.248Z,94149.34
2022-10-23T23:46:41.755Z,94145.72
2022-10-23T23:49:09.428Z,94152.56
2022-10-23T23:51:37.437Z,94152.19
2022-10-23T23:54:04.968Z,94162.22
2022-10-23T23:56:32.756Z,94153.78
2022-10-23T23:59:00.114Z,94151.34
